Time;durP1;ratioP1;P1;durP2;ratioP2;P2;SDS_P1;SDS_P2;PMS_P1;PMS_P2;Temp;Humidity;BMP_temperature;BMP_pressure;BME280_temperature;BME280_humidity;BME280_pressure;Samples;Min_cycle;Max_cycle;Signal;HPM_P1;HPM_P2
2022/09/03 00:02:26;;;;;;;7.20;2.83;;;;;;;15.35;78.93;97920.88;5084171;28;20017;-69
2022/09/03 00:05:10;;;;;;;10.73;2.55;;;;;;;15.43;78.88;97930.19;5083600;28;20032;-69
2022/09/03 00:07:38;;;;;;;3.33;2.28;;;;;;;15.51;78.80;97938.63;5084048;28;20065;-69
2022/09/03 00:10:09;;;;;;;8.52;3.00;;;;;;;15.55;78.61;97942.84;5083821;28;20051;-69
2022/09/03 00:12:41;;;;;;;4.38;2.67;;;;;;;15.53;78.81;97939.41;5083909;28;20032;-69
2022/09/03 00:15:09;;;;;;;7.10;2.67;;;;;;;15.39;78.91;97933.94;5083889;28;20024;-69
2022/09/03 00:17:45;;;;;;;4.28;2.97;;;;;;;15.27;79.25;97934.50;5083831;28;20032;-69
2022/09/03 00:20:12;;;;;;;5.35;2.75;;;;;;;15.08;80.00;97928.38;5083880;28;20032;-69
2022/09/03 00:22:41;;;;;;;6.88;3.00;;;;;;;15.06;80.16;97924.91;5083930;28;20058;-69
2022/09/03 00:25:13;;;;;;;14.48;2.75;;;;;;;15.06;79.50;97930.22;5083449;28;20312;-69
2022/09/03 00:27:42;;;;;;;7.28;3.10;;;;;;;14.96;80.67;97923.66;5083819;28;20031;-69
2022/09/03 00:30:08;;;;;;;5.05;3.00;;;;;;;14.95;80.58;97921.94;5083838;28;20044;-69
2022/09/03 00:32:40;;;;;;;11.80;3.95;;;;;;;14.91;81.14;97930.97;5083667;28;20078;-69
2022/09/03 00:35:13;;;;;;;8.27;2.50;;;;;;;14.79;80.09;97931.56;5083843;28;20039;-69
2022/09/03 00:37:39;;;;;;;5.65;2.65;;;;;;;14.79;81.78;97935.06;5083621;28;20029;-69
2022/09/03 00:40:15;;;;;;;5.32;2.47;;;;;;;14.76;80.71;97937.00;5083827;28;20024;-69
2022/09/03 00:42:57;;;;;;;7.63;3.28;;;;;;;14.76;81.68;97942.28;5083656;28;20020;-69
2022/09/03 00:45:42;;;;;;;;;;;;;;;14.73;82.36;97939.78;5086529;28;20065;-69
2022/09/03 00:48:21;;;;;;;7.97;3.17;;;;;;;14.56;82.32;97942.38;5087578;28;19904;-69
2022/09/03 00:51:27;;;;;;;6.43;3.33;;;;;;;14.60;82.82;97949.22;5087573;28;20065;-69
2022/09/03 00:54:31;;;;;;;11.02;3.28;;;;;;;14.64;83.37;97948.16;5087213;28;20035;-69
2022/09/03 00:57:04;;;;;;;6.10;3.15;;;;;;;14.68;83.17;97949.75;5087432;28;20089;-69
2022/09/03 01:00:04;;;;;;;7.32;3.05;;;;;;;14.77;82.40;97949.28;5087271;28;20066;-69
2022/09/03 01:02:45;;;;;;;5.93;3.28;;;;;;;14.83;82.36;97943.72;5087416;28;20024;-69
2022/09/03 01:05:29;;;;;;;6.03;3.08;;;;;;;14.89;81.94;97943.44;5087529;28;20027;-69
2022/09/03 01:08:25;;;;;;;9.05;2.80;;;;;;;14.92;81.80;97946.81;5087182;28;20112;-69
2022/09/03 01:11:18;;;;;;;10.15;3.00;;;;;;;14.86;82.35;97940.91;5086635;28;20048;-69
2022/09/03 01:14:21;;;;;;;8.13;3.40;;;;;;;14.80;82.31;97942.06;5086951;28;20032;-69
2022/09/03 01:17:11;;;;;;;3.58;2.63;;;;;;;14.64;82.69;97942.84;5087018;28;20267;-69
2022/09/03 01:20:19;;;;;;;7.40;3.78;;;;;;;14.52;82.80;97946.06;5087020;28;20024;-69
2022/09/03 01:23:13;;;;;;;4.40;3.33;;;;;;;14.35;83.68;97956.56;5086632;28;20027;-69
2022/09/03 01:26:21;;;;;;;6.25;3.25;;;;;;;14.38;83.90;97951.13;5081499;28;20088;-69
2022/09/03 01:28:53;;;;;;;8.75;2.85;;;;;;;14.45;84.25;97956.09;5086712;28;20028;-69
2022/09/03 01:31:26;;;;;;;7.68;3.50;;;;;;;14.50;83.97;97955.88;5086635;28;20106;-69
2022/09/03 01:34:10;;;;;;;6.38;3.47;;;;;;;14.55;84.11;97953.88;5086677;28;20046;-69
2022/09/03 01:37:10;;;;;;;5.45;3.38;;;;;;;14.53;83.80;97951.28;5086658;28;20319;-69
2022/09/03 01:40:03;;;;;;;5.32;3.58;;;;;;;14.57;83.89;97946.72;5067275;28;20067;-69
2022/09/03 01:43:11;;;;;;;8.65;3.67;;;;;;;14.56;84.08;97945.00;5086677;28;20032;-69
2022/09/03 01:45:48;;;;;;;5.47;3.25;;;;;;;14.61;84.25;97953.59;5086563;28;20020;-69
2022/09/03 01:48:31;;;;;;;7.25;3.83;;;;;;;14.65;84.15;97957.84;5086487;28;20092;-69
2022/09/03 01:51:10;;;;;;;6.97;3.20;;;;;;;14.71;83.95;97961.03;5086554;28;20307;-69
2022/09/03 01:53:41;;;;;;;4.40;3.08;;;;;;;14.71;83.79;97960.16;5086350;28;20024;-69
2022/09/03 01:56:44;;;;;;;6.90;3.40;;;;;;;14.70;84.13;97958.47;5085348;28;20075;-69
2022/09/03 01:59:43;;;;;;;13.15;3.33;;;;;;;14.70;84.10;97953.16;5086274;28;20024;-69
2022/09/03 02:02:18;;;;;;;6.15;3.40;;;;;;;14.81;83.26;97964.16;5086286;28;20083;-69
2022/09/03 02:05:09;;;;;;;7.05;4.13;;;;;;;14.84;83.30;97964.00;5086167;28;20024;-69
2022/09/03 02:07:38;;;;;;;7.28;3.75;;;;;;;14.88;83.08;97960.28;5086275;28;20024;-69
2022/09/03 02:10:16;;;;;;;8.60;3.58;;;;;;;14.93;82.92;97958.25;5086014;28;20231;-69
2022/09/03 02:12:47;;;;;;;4.45;3.22;;;;;;;14.86;83.66;97959.47;5086205;28;20095;-69
2022/09/03 02:15:17;;;;;;;6.32;3.38;;;;;;;14.92;83.99;97956.53;5085791;28;20287;-69
2022/09/03 02:17:46;;;;;;;10.48;3.30;;;;;;;14.91;84.45;97946.88;5086142;28;20059;-69
2022/09/03 02:20:18;;;;;;;6.40;3.38;;;;;;;14.88;84.15;97949.66;5085907;28;20028;-69
2022/09/03 02:22:45;;;;;;;7.00;3.17;;;;;;;14.75;84.94;97945.88;5086262;28;20024;-69
2022/09/03 02:25:10;;;;;;;8.05;3.70;;;;;;;14.70;85.49;97943.44;5085053;28;20022;-69
2022/09/03 02:27:37;;;;;;;7.35;3.85;;;;;;;14.57;85.79;97944.94;5085779;28;20021;-69
2022/09/03 02:30:03;;;;;;;6.03;3.20;;;;;;;14.55;86.29;97948.56;5085924;28;20085;-69
2022/09/03 02:32:29;;;;;;;6.07;3.65;;;;;;;14.66;86.51;97957.78;5085428;28;20042;-69
2022/09/03 02:34:55;;;;;;;8.88;4.55;;;;;;;14.75;85.65;97956.47;5085665;28;20032;-69
2022/09/03 02:37:21;;;;;;;4.80;3.30;;;;;;;14.81;85.74;97962.31;5085390;28;20024;-69
2022/09/03 02:39:47;;;;;;;4.85;3.35;;;;;;;14.81;85.62;97961.50;5085635;28;20024;-69
2022/09/03 02:42:13;;;;;;;6.63;3.17;;;;;;;14.80;85.65;97952.69;5085845;28;20411;-69
2022/09/03 02:44:45;;;;;;;4.25;3.38;;;;;;;14.80;86.14;97959.75;5085436;28;20024;-69
2022/09/03 02:47:10;;;;;;;8.07;3.83;;;;;;;14.84;85.91;97958.69;5085254;28;20086;-69
2022/09/03 02:49:35;;;;;;;4.93;3.28;;;;;;;14.86;87.08;97954.16;5085382;28;20024;-69
2022/09/03 02:52:08;;;;;;;6.15;3.33;;;;;;;14.83;88.13;97955.19;5085371;28;20028;-69
2022/09/03 02:54:38;;;;;;;11.13;3.72;;;;;;;14.83;89.25;97955.19;5085221;28;20381;-69
2022/09/03 02:57:08;;;;;;;7.80;3.83;;;;;;;14.92;88.55;97959.19;5085334;28;20050;-69
2022/09/03 02:59:34;;;;;;;5.53;3.58;;;;;;;14.89;89.43;97969.94;5084860;28;20020;-69
2022/09/03 03:01:59;;;;;;;6.30;3.88;;;;;;;14.77;91.65;97949.28;5084877;28;20024;-69
2022/09/03 03:04:25;;;;;;;6.90;3.70;;;;;;;14.68;92.15;97957.69;5085146;28;20021;-69
2022/09/03 03:06:51;;;;;;;6.65;3.90;;;;;;;14.61;92.47;97948.28;5085005;28;20092;-69
2022/09/03 03:09:16;;;;;;;6.57;3.83;;;;;;;14.50;93.15;97956.75;5084779;28;20044;-69
2022/09/03 03:11:42;;;;;;;8.52;3.80;;;;;;;14.49;92.63;97955.00;5084946;28;20336;-69
2022/09/03 03:14:07;;;;;;;10.45;4.25;;;;;;;14.45;92.19;97957.88;5085047;28;20028;-69
2022/09/03 03:16:33;;;;;;;6.50;3.75;;;;;;;14.53;92.10;97950.44;5084771;28;20024;-69
2022/09/03 03:18:59;;;;;;;6.40;3.88;;;;;;;14.48;93.07;97955.09;5084522;28;20017;-69
2022/09/03 03:21:24;;;;;;;7.00;3.80;;;;;;;14.52;92.88;97964.59;5084699;28;20312;-69
2022/09/03 03:23:50;;;;;;;6.88;3.83;;;;;;;14.50;93.00;97969.13;5083808;28;20083;-69
2022/09/03 03:26:17;;;;;;;5.90;4.10;;;;;;;14.57;93.81;97970.56;5084569;28;20066;-69
2022/09/03 03:28:45;;;;;;;14.43;4.88;;;;;;;14.52;95.67;97975.19;5084582;28;20024;-69
2022/09/03 03:31:15;;;;;;;9.23;3.97;;;;;;;14.54;95.89;97983.94;5084836;28;20020;-69
2022/09/03 03:33:40;;;;;;;5.80;3.92;;;;;;;14.58;94.71;97977.56;5084426;28;20024;-69
2022/09/03 03:36:11;;;;;;;8.88;3.97;;;;;;;14.59;94.99;97979.31;5084491;28;20074;-69
2022/09/03 03:38:37;;;;;;;7.75;4.00;;;;;;;14.61;95.65;97982.72;5084397;28;20027;-69
2022/09/03 03:41:17;;;;;;;11.20;4.43;;;;;;;14.62;96.83;97993.25;5084404;28;20024;-69
2022/09/03 03:43:43;;;;;;;9.38;4.55;;;;;;;14.68;96.98;97992.13;5084332;28;20033;-69
2022/09/03 03:46:09;;;;;;;7.65;4.30;;;;;;;14.63;97.49;97983.53;5084559;28;20020;-69
2022/09/03 03:48:35;;;;;;;10.95;4.55;;;;;;;14.52;99.89;97991.06;5084494;28;20027;-69
2022/09/03 03:51:03;;;;;;;7.43;4.43;;;;;;;14.54;100.00;97994.53;5084100;28;20016;-69
2022/09/03 03:53:29;;;;;;;8.82;4.40;;;;;;;14.54;100.00;97999.81;5084451;28;20066;-69
2022/09/03 03:55:58;;;;;;;7.55;5.10;;;;;;;14.35;100.00;97988.34;5084255;28;20020;-69
2022/09/03 03:58:25;;;;;;;9.25;4.60;;;;;;;14.34;100.00;97991.91;5084548;28;20292;-69
2022/09/03 04:00:51;;;;;;;11.18;5.50;;;;;;;14.40;100.00;97991.66;5083966;28;20201;-69
2022/09/03 04:03:17;;;;;;;10.15;5.70;;;;;;;14.31;100.00;97992.06;5084055;28;20223;-69
2022/09/03 04:05:42;;;;;;;11.27;5.20;;;;;;;14.29;100.00;97991.25;5084047;28;20020;-69
2022/09/03 04:08:08;;;;;;;9.82;5.60;;;;;;;14.36;100.00;98005.94;5084090;28;20024;-69
2022/09/03 04:10:35;;;;;;;7.22;4.82;;;;;;;14.43;100.00;98007.41;5083915;28;20075;-69
2022/09/03 04:13:00;;;;;;;8.70;5.72;;;;;;;14.42;100.00;98010.94;5084011;28;20044;-69
2022/09/03 04:15:25;;;;;;;22.77;6.78;;;;;;;14.44;100.00;98017.94;5083966;28;20037;-69
2022/09/03 04:17:54;;;;;;;21.33;7.13;;;;;;;14.52;100.00;98022.84;5083922;28;20025;-69
2022/09/03 04:20:19;;;;;;;16.08;6.95;;;;;;;14.45;100.00;98010.81;5083466;28;20049;-69
2022/09/03 04:22:44;;;;;;;14.65;5.80;;;;;;;14.38;100.00;98014.69;5083681;28;20028;-69
2022/09/03 04:25:10;;;;;;;11.82;6.30;;;;;;;14.33;100.00;98017.53;5083094;28;20066;-69
2022/09/03 04:27:35;;;;;;;15.70;6.20;;;;;;;14.28;100.00;98018.66;5083847;28;20048;-69
2022/09/03 04:30:01;;;;;;;25.52;9.93;;;;;;;14.55;100.00;98020.06;5083868;28;20029;-69
2022/09/03 04:35:11;;;;;;;13.50;8.60;;;;;;;14.68;100.00;98035.34;5083707;28;20212;-69
2022/09/03 04:37:36;;;;;;;17.10;9.38;;;;;;;14.90;100.00;98053.78;5083738;28;20088;-69
2022/09/03 04:40:02;;;;;;;18.63;8.48;;;;;;;14.90;100.00;98051.13;5083760;28;20024;-69
2022/09/03 04:42:28;;;;;;;14.63;8.52;;;;;;;14.94;100.00;98055.38;5083637;28;20069;-69
2022/09/03 04:44:53;;;;;;;15.23;9.98;;;;;;;15.09;100.00;98057.28;5083764;28;20242;-69
2022/09/03 04:47:18;;;;;;;24.00;10.20;;;;;;;15.26;100.00;98043.25;5083678;28;20020;-69
2022/09/03 04:49:44;;;;;;;20.05;10.27;;;;;;;15.36;100.00;98039.25;5083419;28;20032;-69
2022/09/03 04:52:09;;;;;;;14.40;9.75;;;;;;;15.46;100.00;98030.81;5083864;28;20024;-69
2022/09/03 04:54:34;;;;;;;17.67;10.75;;;;;;;15.53;100.00;98021.63;5083286;28;20054;-69
2022/09/03 04:57:00;;;;;;;16.95;10.48;;;;;;;15.53;100.00;98011.00;5083701;28;20020;-69
2022/09/03 04:59:25;;;;;;;19.65;10.23;;;;;;;15.56;100.00;98002.06;5083489;28;20066;-69
2022/09/03 05:01:55;;;;;;;14.05;8.57;;;;;;;15.44;100.00;97994.69;5083545;28;20020;-69
2022/09/03 05:04:20;;;;;;;19.83;9.95;;;;;;;15.50;100.00;97983.78;5083730;28;20047;-69
2022/09/03 05:06:45;;;;;;;13.60;8.35;;;;;;;15.51;100.00;97965.16;5083492;28;20020;-69
2022/09/03 05:09:11;;;;;;;18.42;10.32;;;;;;;15.42;100.00;97962.06;5083493;28;20020;-69
2022/09/03 05:11:36;;;;;;;21.25;10.30;;;;;;;15.33;100.00;97963.38;5083410;28;20062;-69
2022/09/03 05:14:02;;;;;;;21.77;11.52;;;;;;;15.30;100.00;97960.84;5083231;28;20197;-69
2022/09/03 05:16:29;;;;;;;16.05;11.70;;;;;;;15.29;100.00;97969.75;5082863;28;20080;-69
2022/09/03 05:18:58;;;;;;;20.08;11.63;;;;;;;15.35;100.00;97973.91;5083568;28;20099;-69
2022/09/03 05:21:24;;;;;;;19.92;11.73;;;;;;;15.37;100.00;97983.50;5083286;28;20028;-69
2022/09/03 05:23:51;;;;;;;20.92;10.75;;;;;;;15.42;100.00;97986.81;5082515;28;20031;-69
2022/09/03 05:26:28;;;;;;;15.85;10.60;;;;;;;15.52;100.00;97996.03;5083240;28;20385;-69
2022/09/03 05:28:55;;;;;;;17.10;11.05;;;;;;;15.68;100.00;97988.16;5083145;28;20048;-69
2022/09/03 05:31:24;;;;;;;16.58;11.50;;;;;;;15.59;100.00;97991.28;5084300;28;20300;-69
2022/09/03 05:33:53;;;;;;;25.15;12.77;;;;;;;15.57;100.00;98001.13;5086521;28;20070;-69
2022/09/03 05:36:21;;;;;;;16.90;11.23;;;;;;;15.65;100.00;98009.53;5085930;28;20052;-69
2022/09/03 05:38:48;;;;;;;18.50;11.38;;;;;;;15.69;100.00;98011.97;5085617;28;20024;-69
2022/09/03 05:41:15;;;;;;;19.55;12.05;;;;;;;15.71;100.00;98003.94;5085715;28;20078;-69
2022/09/03 05:43:41;;;;;;;19.50;10.90;;;;;;;15.64;100.00;98007.84;5085471;28;20055;-69
2022/09/03 05:46:10;;;;;;;20.70;11.77;;;;;;;15.59;100.00;98008.06;5085639;28;20354;-68
2022/09/03 05:48:36;;;;;;;18.25;12.38;;;;;;;15.55;100.00;98027.72;5085548;28;20016;-68
2022/09/03 05:51:07;;;;;;;19.52;11.88;;;;;;;15.58;100.00;98030.22;5085159;28;20040;-69
2022/09/03 05:53:34;;;;;;;16.13;10.93;;;;;;;15.59;100.00;98028.41;5085825;28;20024;-69
2022/09/03 05:56:03;;;;;;;19.63;11.55;;;;;;;15.62;100.00;98021.16;5085460;28;20020;-69
2022/09/03 05:58:33;;;;;;;17.58;10.68;;;;;;;15.62;100.00;98021.16;5085185;28;20028;-69
2022/09/03 06:00:59;;;;;;;17.75;11.25;;;;;;;15.64;100.00;98014.00;5085297;28;20023;-69
2022/09/03 06:03:25;;;;;;;18.08;11.57;;;;;;;15.63;100.00;98006.97;5084938;28;20305;-69
2022/09/03 06:05:52;;;;;;;21.40;11.65;;;;;;;15.63;100.00;98016.75;5085276;28;20012;-69
2022/09/03 06:08:17;;;;;;;19.30;10.68;;;;;;;15.62;100.00;98022.97;5085270;28;20066;-69
2022/09/03 06:10:43;;;;;;;16.95;10.85;;;;;;;15.59;100.00;98021.31;5085044;28;20305;-69
2022/09/03 06:13:08;;;;;;;18.77;10.43;;;;;;;15.66;100.00;98029.84;5085107;28;20024;-69
2022/09/03 06:15:33;;;;;;;15.85;10.07;;;;;;;15.63;100.00;98022.88;5084345;28;20059;-69
2022/09/03 06:17:59;;;;;;;18.27;10.98;;;;;;;15.59;100.00;98016.00;5085046;28;20043;-69
2022/09/03 06:20:27;;;;;;;20.08;10.60;;;;;;;15.55;100.00;98002.97;5085046;28;20094;-69
2022/09/03 06:22:53;;;;;;;18.70;10.70;;;;;;;15.57;100.00;98012.59;5084988;28;20032;-69
2022/09/03 06:25:19;;;;;;;16.90;10.40;;;;;;;15.63;100.00;98022.88;5084084;28;20013;-69
2022/09/03 06:27:44;;;;;;;15.10;9.60;;;;;;;15.66;100.00;98028.03;5084569;28;20324;-69
2022/09/03 06:30:11;;;;;;;18.40;9.23;;;;;;;15.70;100.00;98021.66;5084434;28;20047;-69
2022/09/03 06:32:46;;;;;;;16.70;10.02;;;;;;;15.66;100.00;98028.03;5084506;28;20028;-69
2022/09/03 06:35:11;;;;;;;13.80;8.90;;;;;;;15.66;100.00;98030.69;5083486;28;20028;-69
2022/09/03 06:37:40;;;;;;;18.27;8.82;;;;;;;15.71;100.00;98036.66;5084613;28;20027;-69
2022/09/03 06:40:11;;;;;;;12.77;8.55;;;;;;;15.74;100.00;98030.31;5084564;28;20024;-69
2022/09/03 06:42:37;;;;;;;16.70;10.18;;;;;;;15.78;100.00;98032.75;5084127;28;20366;-69
2022/09/03 06:45:03;;;;;;;17.52;8.95;;;;;;;15.82;100.00;98039.63;5084487;28;20020;-69
2022/09/03 06:47:28;;;;;;;16.77;8.32;;;;;;;15.87;100.00;98031.44;5084421;28;20021;-69
2022/09/03 06:49:53;;;;;;;16.65;8.48;;;;;;;15.79;100.00;98039.75;5084409;28;20024;-69
2022/09/03 06:52:19;;;;;;;9.48;6.25;;;;;;;15.88;100.00;98044.63;5084371;28;20035;-69
2022/09/03 06:54:44;;;;;;;12.30;6.30;;;;;;;15.95;100.00;98040.72;5083882;28;20074;-69
2022/09/03 06:57:09;;;;;;;11.98;7.15;;;;;;;15.85;100.00;98044.78;5084138;28;20280;-69
2022/09/03 06:59:35;;;;;;;10.80;6.13;;;;;;;15.89;100.00;98045.50;5083889;28;20320;-69
2022/09/03 07:02:02;;;;;;;12.52;6.72;;;;;;;15.87;100.00;98048.22;5084148;28;20024;-69
2022/09/03 07:04:27;;;;;;;11.30;5.88;;;;;;;15.81;100.00;98037.03;5083833;28;20043;-69
2022/09/03 07:06:53;;;;;;;14.57;6.75;;;;;;;15.78;100.00;98037.19;5084063;28;20047;-69
2022/09/03 07:09:18;;;;;;;15.10;7.40;;;;;;;15.78;100.00;98046.00;5083471;28;20041;-69
2022/09/03 07:11:48;;;;;;;9.90;6.28;;;;;;;15.79;100.00;98039.75;5083913;28;20024;-69
2022/09/03 07:14:14;;;;;;;11.02;6.45;;;;;;;15.83;100.00;98032.53;5084007;28;20192;-69
2022/09/03 07:16:41;;;;;;;9.82;6.20;;;;;;;15.80;100.00;98027.38;5083819;28;20017;-69
2022/09/03 07:19:07;;;;;;;9.52;6.78;;;;;;;15.82;100.00;98034.31;5083952;28;20024;-69
2022/09/03 07:21:37;;;;;;;8.05;5.68;;;;;;;15.82;100.00;98050.22;5083358;28;20024;-69
2022/09/03 07:24:04;;;;;;;9.40;5.70;;;;;;;15.78;100.00;98046.00;5082927;28;20326;-69
2022/09/03 07:26:31;;;;;;;13.55;6.38;;;;;;;15.83;100.00;98051.97;5084210;28;20095;-69
2022/09/03 07:28:58;;;;;;;9.38;5.78;;;;;;;15.84;100.00;98048.38;5083435;28;20028;-69
2022/09/03 07:31:26;;;;;;;8.65;5.13;;;;;;;15.85;100.00;98044.78;5083561;28;20024;-69
2022/09/03 07:33:59;;;;;;;9.82;5.20;;;;;;;15.89;100.00;98050.81;5083275;28;20096;-69
2022/09/03 07:36:27;;;;;;;7.88;5.22;;;;;;;15.82;100.00;98039.63;5083323;28;20028;-69
2022/09/03 07:38:57;;;;;;;10.50;5.93;;;;;;;15.85;100.00;98054.56;5083471;28;20024;-68
2022/09/03 07:41:23;;;;;;;11.98;5.88;;;;;;;15.90;100.00;98053.38;5083766;28;20311;-68
2022/09/03 07:43:49;;;;;;;9.68;5.53;;;;;;;15.94;100.00;98054.94;5083744;28;20389;-69
2022/09/03 07:46:23;;;;;;;9.52;5.80;;;;;;;15.99;100.00;98052.94;5083178;28;20024;-69
2022/09/03 07:48:49;;;;;;;8.85;5.10;;;;;;;16.05;100.00;98051.75;5082913;28;20023;-69
2022/09/03 07:51:16;;;;;;;7.47;5.60;;;;;;;16.00;100.00;98051.09;5083332;28;20082;-69
2022/09/03 07:53:42;;;;;;;9.68;6.05;;;;;;;16.08;100.00;98065.75;5083145;28;20378;-69
2022/09/03 07:56:09;;;;;;;11.57;5.93;;;;;;;16.08;100.00;98057.78;5082994;28;20025;-69
2022/09/03 07:58:36;;;;;;;7.78;5.82;;;;;;;16.28;100.00;98070.91;5083204;28;20031;-69
2022/09/03 08:01:13;;;;;;;7.90;5.40;;;;;;;16.33;100.00;98068.84;5082719;28;20334;-69
2022/09/03 08:03:42;;;;;;;8.80;5.50;;;;;;;16.50;100.00;98076.88;5083180;28;20035;-69
2022/09/03 08:06:11;;;;;;;9.73;5.95;;;;;;;16.67;100.00;98074.19;5083169;28;20028;-69
2022/09/03 08:08:37;;;;;;;7.22;5.65;;;;;;;16.80;100.00;98075.25;5082873;28;20028;-69
2022/09/03 08:11:25;;;;;;;8.20;5.38;;;;;;;16.94;100.00;98082.50;5082966;28;20044;-69
2022/09/03 08:14:01;;;;;;;10.23;5.63;;;;;;;17.09;100.00;98085.19;5082597;28;20031;-69
2022/09/03 08:16:40;;;;;;;6.00;3.83;;;;;;;17.07;100.00;98079.09;5083321;28;20312;-69
2022/09/03 08:19:06;;;;;;;8.35;4.90;;;;;;;17.15;100.00;98084.84;5083276;28;20016;-69
2022/09/03 08:21:31;;;;;;;6.15;4.05;;;;;;;17.27;100.00;98090.47;5082999;28;20084;-69
2022/09/03 08:24:01;;;;;;;6.43;3.88;;;;;;;17.46;100.00;98091.22;5082152;28;20020;-69
2022/09/03 08:26:29;;;;;;;5.95;3.53;;;;;;;17.70;100.00;98092.47;5082728;28;20083;-69
2022/09/03 08:28:55;;;;;;;4.13;3.13;;;;;;;17.71;100.00;98091.53;5082686;28;20242;-69
2022/09/03 08:31:22;;;;;;;5.28;3.28;;;;;;;17.68;100.00;98091.72;5082907;28;20025;-69
2022/09/03 08:33:50;;;;;;;7.88;3.20;;;;;;;17.73;100.00;98100.28;5082548;28;20034;-69
2022/09/03 08:36:24;;;;;;;4.70;3.38;;;;;;;17.78;100.00;98103.56;5082862;28;20261;-69
2022/09/03 08:38:53;;;;;;;8.55;3.53;;;;;;;17.85;100.00;98105.81;5082836;28;20028;-69
2022/09/03 08:41:43;;;;;;;4.97;2.75;;;;;;;17.87;100.00;98103.06;5082117;28;20043;-69
2022/09/03 08:44:33;;;;;;;7.38;3.03;;;;;;;17.94;100.00;98109.75;5082734;28;20096;-69
2022/09/03 08:47:13;;;;;;;6.50;3.45;;;;;;;17.99;100.00;98113.00;5082772;28;20340;-69
2022/09/03 08:49:57;;;;;;;7.75;2.92;;;;;;;17.69;100.00;98114.72;5082691;28;20024;-69
2022/09/03 08:52:31;;;;;;;3.83;2.88;;;;;;;17.72;100.00;98114.56;5082388;28;20070;-69
2022/09/03 08:55:15;;;;;;;4.10;2.70;;;;;;;17.92;100.00;98119.63;5082891;28;20189;-69
2022/09/03 08:57:45;;;;;;;5.88;2.97;;;;;;;18.27;100.00;98129.09;5082653;28;20031;-69
2022/09/03 09:00:10;;;;;;;7.60;3.00;;;;;;;18.17;100.00;98119.94;5082779;28;20024;-69
2022/09/03 09:02:52;;;;;;;6.22;2.97;;;;;;;18.06;100.00;98130.31;5082521;28;20091;-69
2022/09/03 09:05:47;;;;;;;5.75;2.92;;;;;;;17.77;100.00;98134.66;5082816;28;20013;-69
2022/09/03 09:08:19;;;;;;;11.82;4.57;;;;;;;17.67;100.00;98137.91;5085970;28;20087;-69
2022/09/03 09:10:44;;;;;;;10.00;3.72;;;;;;;17.68;100.00;98134.31;5086194;28;20056;-69
2022/09/03 09:13:18;;;;;;;5.55;3.70;;;;;;;17.77;100.00;98145.28;5081915;28;20028;-69
2022/09/03 09:16:06;;;;;;;7.28;3.90;;;;;;;17.99;100.00;98150.25;5086226;28;20320;-72
2022/09/03 09:18:37;;;;;;;5.18;3.50;;;;;;;18.44;100.00;98148.53;5085904;28;20025;-72
2022/09/03 09:21:44;;;;;;;5.28;3.60;;;;;;;18.37;100.00;98146.31;5086175;28;20405;-72
2022/09/03 09:24:20;;;;;;;5.13;3.17;;;;;;;18.34;100.00;98143.78;5071426;28;20040;-72
2022/09/03 09:26:47;;;;;;;7.45;3.53;;;;;;;18.35;100.00;98142.84;5086111;28;20024;-72
2022/09/03 09:29:14;;;;;;;6.63;4.07;;;;;;;18.31;100.00;98133.28;5088796;28;20086;-72
2022/09/03 09:31:43;;;;;;;6.40;4.90;;;;;;;18.41;100.00;98137.16;5091703;28;20050;-72
2022/09/03 09:34:09;;;;;;;7.32;3.88;;;;;;;18.40;100.00;98138.13;5094859;28;20028;-72
2022/09/03 09:37:03;;;;;;;4.32;3.22;;;;;;;18.44;100.00;98142.31;5106242;28;20027;-73
2022/09/03 09:39:28;;;;;;;7.45;3.33;;;;;;;18.29;100.00;98151.19;5073614;28;20032;-74
2022/09/03 09:42:04;;;;;;;6.70;3.70;;;;;;;18.22;100.00;98152.50;5097953;28;20035;-73
2022/09/03 09:44:30;;;;;;;5.47;3.45;;;;;;;18.33;100.00;98150.06;5098770;28;20023;-74
2022/09/03 09:47:22;;;;;;;5.32;3.10;;;;;;;18.44;100.00;98153.84;5096662;28;20211;-73
2022/09/03 09:49:56;;;;;;;6.38;3.25;;;;;;;18.61;100.00;98160.88;5077763;28;20266;-73
2022/09/03 09:52:25;;;;;;;5.90;3.00;;;;;;;18.78;100.00;98163.38;5093877;28;20335;-73
2022/09/03 09:54:53;;;;;;;5.47;3.78;;;;;;;19.13;100.00;98162.13;5101626;28;20031;-73
2022/09/03 09:57:24;;;;;;;4.57;2.90;;;;;;;19.30;100.00;98151.31;5089227;28;20012;-73
2022/09/03 10:00:02;;;;;;;5.13;2.90;;;;;;;19.41;99.50;98153.31;5097836;28;20387;-73
2022/09/03 10:02:28;;;;;;;8.10;3.05;;;;;;;19.45;100.00;98157.53;5098155;28;20024;-72
2022/09/03 10:05:12;;;;;;;5.75;2.65;;;;;;;19.40;99.24;98157.81;5095045;28;20020;-72
2022/09/03 10:07:38;;;;;;;5.97;2.97;;;;;;;19.24;100.00;98162.34;5075464;28;20035;-73
2022/09/03 10:10:15;;;;;;;4.18;2.53;;;;;;;18.97;100.00;98164.00;5095358;28;20294;-73
2022/09/03 10:12:43;;;;;;;8.50;2.65;;;;;;;18.86;100.00;98161.13;5072117;28;20058;-73
2022/09/03 10:15:23;;;;;;;3.33;2.53;;;;;;;18.81;100.00;98152.53;5097678;28;20020;-73
2022/09/03 10:17:54;;;;;;;6.22;3.20;;;;;;;18.84;100.00;98160.38;5090155;28;20024;-73
2022/09/03 10:20:53;;;;;;;6.65;3.20;;;;;;;18.82;100.00;98159.59;5102017;28;20301;-72
2022/09/03 10:23:27;;;;;;;4.63;2.63;;;;;;;19.08;100.00;98161.56;5091905;28;20065;-72
2022/09/03 10:26:06;;;;;;;4.13;3.03;;;;;;;19.55;100.00;98164.84;5087033;28;20375;-72
2022/09/03 10:28:40;;;;;;;7.93;3.17;;;;;;;19.87;97.30;98157.47;5087503;28;20237;-72
2022/09/03 10:31:38;;;;;;;3.97;2.95;;;;;;;20.23;97.07;98145.31;5098621;28;20212;-72
2022/09/03 10:34:37;;;;;;;4.38;2.90;;;;;;;20.38;94.07;98144.28;5073725;28;20024;-72
2022/09/03 10:37:13;;;;;;;3.95;2.50;;;;;;;20.64;91.71;98148.75;5087645;28;20332;-72
2022/09/03 10:39:46;;;;;;;4.82;2.67;;;;;;;22.11;83.54;98150.78;5103944;28;20070;-72
2022/09/03 10:42:26;;;;;;;3.50;2.08;;;;;;;23.07;80.76;98150.66;5104822;28;20026;-72
2022/09/03 10:45:29;;;;;;;4.75;2.50;;;;;;;23.47;77.32;98146.59;5101052;28;20055;-72
2022/09/03 10:48:10;;;;;;;3.60;2.40;;;;;;;23.51;75.54;98131.97;5084428;28;20028;-72
2022/09/03 10:50:50;;;;;;;3.55;2.20;;;;;;;24.12;73.60;98142.22;5084112;28;20310;-72
2022/09/03 10:53:53;;;;;;;4.28;2.45;;;;;;;24.50;74.33;98126.47;5084328;28;20024;-72
2022/09/03 10:56:21;;;;;;;;;;;;;;;24.01;74.35;98126.09;5084696;28;20028;-73
2022/09/03 10:59:09;;;;;;;3.50;2.58;;;;;;;24.60;74.14;98129.22;5084266;28;19904;-73
2022/09/03 11:01:59;;;;;;;8.00;2.83;;;;;;;24.53;74.96;98126.22;5084051;28;20091;-73
2022/09/03 11:04:43;;;;;;;4.78;2.78;;;;;;;23.84;73.80;98129.25;5083769;28;20084;-73
2022/09/03 11:07:12;;;;;;;6.55;3.15;;;;;;;23.37;75.83;98129.50;5084049;28;20099;-73
2022/09/03 11:09:47;;;;;;;5.75;3.08;;;;;;;22.56;78.92;98131.31;5086286;28;20321;-73
2022/09/03 11:12:38;;;;;;;5.47;2.72;;;;;;;22.24;80.07;98115.91;5070160;28;20016;-73
2022/09/03 11:15:11;;;;;;;4.82;2.88;;;;;;;22.81;79.07;98124.97;5072957;28;20086;-73
2022/09/03 11:17:51;;;;;;;4.88;3.00;;;;;;;22.73;79.14;98128.25;5090853;28;20055;-72
2022/09/03 11:20:20;;;;;;;6.05;2.75;;;;;;;22.74;80.42;98134.44;5083856;28;20197;-73
2022/09/03 11:22:49;;;;;;;6.25;3.75;;;;;;;23.01;79.11;98127.81;5083592;28;20074;-73
2022/09/03 11:25:20;;;;;;;5.90;3.50;;;;;;;23.10;77.86;98126.25;5086129;28;20020;-73
2022/09/03 11:28:10;;;;;;;5.05;3.45;;;;;;;22.79;78.18;98129.59;5083660;28;20084;-73
2022/09/03 11:30:48;;;;;;;6.82;3.42;;;;;;;22.48;78.30;98122.09;5082446;28;20028;-73
2022/09/03 11:33:13;;;;;;;5.10;2.92;;;;;;;22.12;79.52;98114.13;5083610;28;20032;-73
2022/09/03 11:35:41;;;;;;;5.68;3.70;;;;;;;23.22;77.59;98115.41;5083746;28;20088;-73
2022/09/03 11:38:15;;;;;;;5.85;3.22;;;;;;;23.38;76.07;98111.56;5083809;28;20103;-73
2022/09/03 11:40:55;;;;;;;5.75;3.20;;;;;;;23.12;76.60;98113.56;5083491;28;20084;-73
2022/09/03 11:43:23;;;;;;;4.72;3.30;;;;;;;22.51;78.69;98095.09;5087672;28;20020;-73
2022/09/03 11:46:20;;;;;;;5.53;3.25;;;;;;;22.77;78.01;98107.38;5083161;28;20201;-73
2022/09/03 11:48:56;;;;;;;7.75;3.42;;;;;;;21.96;79.70;98094.78;5072685;28;20040;-73
2022/09/03 11:51:36;;;;;;;5.93;4.10;;;;;;;21.90;80.37;98088.06;5083366;28;20084;-73
2022/09/03 11:54:11;;;;;;;7.47;3.67;;;;;;;22.13;80.06;98102.44;5083457;28;20021;-73